In Rescue
 
Open Full Screen Window  High Contrast Mode
Wind Gusting 00 knots
08
February 02, 2023 8:13 PM EST
Weather Information
Wind Direction
  250 °
Wind Speed
  08 kt (9 mph)
Wind Gust
  00 kt (0 mph)
Altimeter
30.04 in
Visibility
10 SM
Temperature
00° C
32° F
Dewpoint
-07° C
19° F
Humidity
60%
1hr Rain Fall
00.00 in.
24hr Rain Fall
00.00 in.
Sky Condition
Clear
VFR

METAR KMRT 030113Z AUTO 25008KT 10SM CLR 00/M07 A3004 RMK AO2 T10021072

FAA Disclaimer: The data displayed is for advisory purposes only and is not to be used for flight planning or operations.